Time;durP1;ratioP1;P1;durP2;ratioP2;P2;SDS_P1;SDS_P2;PMS_P1;PMS_P2;Temp;Humidity;BMP_temperature;BMP_pressure;BME280_temperature;BME280_humidity;BME280_pressure;Samples;Min_cycle;Max_cycle;Signal;HPM_P1;HPM_P2
2024/03/18 00:01:49;;;;;;;11.38;6.50;;;;;;;;;;5023351;28;20060;-83
2024/03/18 00:04:14;;;;;;;12.80;6.93;;;;;;;;;;5039714;28;20057;-83
2024/03/18 00:06:40;;;;;;;8.13;6.25;;;;;;;;;;5020773;28;20057;-85
2024/03/18 00:09:07;;;;;;;9.45;6.03;;;;;;;;;;4998332;28;20046;-85
2024/03/18 00:11:32;;;;;;;10.15;7.05;;;;;;;;;;5018407;28;20054;-85
2024/03/18 00:13:58;;;;;;;8.88;6.53;;;;;;;;;;5022215;28;20076;-85
2024/03/18 00:16:24;;;;;;;8.70;6.90;;;;;;;;;;5039157;28;20567;-84
2024/03/18 00:18:49;;;;;;;10.43;7.10;;;;;;;;;;5001529;28;20186;-84
2024/03/18 00:21:15;;;;;;;12.13;7.03;;;;;;;;;;4997105;28;20142;-85
2024/03/18 00:23:40;;;;;;;9.07;6.00;;;;;;;;;;4996677;28;20508;-86
2024/03/18 00:26:06;;;;;;;11.32;7.45;;;;;;;;;;5013108;28;20080;-86
2024/03/18 00:28:32;;;;;;;8.57;6.68;;;;;;;;;;5005632;28;20108;-84
2024/03/18 00:30:57;;;;;;;8.90;6.75;;;;;;;;;;5014063;28;20050;-85
2024/03/18 00:33:24;;;;;;;11.13;6.63;;;;;;;;;;5013778;28;20053;-85
2024/03/18 00:35:56;;;;;;;7.18;6.25;;;;;;;;;;5013647;28;20049;-84
2024/03/18 00:38:22;;;;;;;15.45;6.53;;;;;;;;;;4997012;28;20192;-85
2024/03/18 00:40:56;;;;;;;8.57;5.40;;;;;;;;;;4997096;28;20107;-86
2024/03/18 00:43:22;;;;;;;9.45;4.97;;;;;;;;;;5015618;28;20084;-86
2024/03/18 00:45:48;;;;;;;6.15;4.97;;;;;;;;;;5016558;28;20556;-86
2024/03/18 00:48:13;;;;;;;5.97;5.00;;;;;;;;;;4998645;28;20046;-88
2024/03/18 00:50:39;;;;;;;8.70;5.07;;;;;;;;;;5020086;28;20049;-86
2024/03/18 00:53:07;;;;;;;6.93;4.72;;;;;;;;;;5018778;28;20061;-87
2024/03/18 00:55:33;;;;;;;6.95;4.63;;;;;;;;;;5016032;28;20103;-86
2024/03/18 00:58:03;;;;;;;6.25;4.47;;;;;;;;;;4996426;28;20050;-86
2024/03/18 01:00:29;;;;;;;7.97;5.53;;;;;;;;;;5008828;28;20123;-87
2024/03/18 01:02:54;;;;;;;6.60;5.40;;;;;;;;;;5015989;28;20579;-86
2024/03/18 01:05:20;;;;;;;5.57;4.50;;;;;;;;;;5016380;28;20100;-86
2024/03/18 01:07:45;;;;;;;8.35;4.82;;;;;;;;;;5016278;28;20057;-84
2024/03/18 01:10:11;;;;;;;5.38;4.28;;;;;;;;;;5016545;28;20100;-86
2024/03/18 01:12:37;;;;;;;4.72;3.90;;;;;;;;;;4999339;28;20045;-85
2024/03/18 01:15:03;;;;;;;10.02;4.78;;;;;;;;;;5015804;28;20057;-86
2024/03/18 01:17:29;;;;;;;6.30;4.65;;;;;;;;;;4996286;28;20053;-86
2024/03/18 01:19:55;;;;;;;9.18;5.40;;;;;;;;;;5032360;28;20049;-85
2024/03/18 01:22:21;;;;;;;5.10;4.50;;;;;;;;;;5011372;28;20041;-85
2024/03/18 01:24:46;;;;;;;7.93;4.28;;;;;;;;;;5004533;28;20060;-86
2024/03/18 01:27:12;;;;;;;8.32;4.82;;;;;;;;;;5015186;28;20547;-86
2024/03/18 01:29:38;;;;;;;11.20;4.90;;;;;;;;;;4999539;28;20045;-84
2024/03/18 01:32:03;;;;;;;4.90;4.30;;;;;;;;;;5032678;28;20077;-84
2024/03/18 01:34:29;;;;;;;6.10;5.47;;;;;;;;;;5032170;28;20045;-84
2024/03/18 01:36:54;;;;;;;5.85;4.50;;;;;;;;;;5015519;28;20095;-86
2024/03/18 01:39:20;;;;;;;6.72;5.13;;;;;;;;;;5015440;28;20454;-86
2024/03/18 01:41:47;;;;;;;8.75;5.18;;;;;;;;;;5024078;28;20489;-86
2024/03/18 01:44:12;;;;;;;10.27;5.88;;;;;;;;;;5016368;28;20111;-86
2024/03/18 01:46:38;;;;;;;9.07;5.50;;;;;;;;;;4998979;28;20049;-86
2024/03/18 01:49:03;;;;;;;8.70;4.97;;;;;;;;;;5015457;28;20050;-84
2024/03/18 01:51:29;;;;;;;9.02;6.03;;;;;;;;;;5032834;28;20045;-85
2024/03/18 01:53:55;;;;;;;6.20;5.55;;;;;;;;;;5001868;28;20084;-86
2024/03/18 01:56:21;;;;;;;9.23;5.80;;;;;;;;;;4999055;28;20053;-86
2024/03/18 01:58:49;;;;;;;7.53;5.05;;;;;;;;;;4999726;28;20057;-84
2024/03/18 02:01:15;;;;;;;7.82;5.50;;;;;;;;;;5019402;28;20046;-83
2024/03/18 02:03:40;;;;;;;8.48;4.95;;;;;;;;;;5008095;28;20061;-83
2024/03/18 02:06:06;;;;;;;12.55;5.32;;;;;;;;;;5023039;28;20049;-82
2024/03/18 02:08:35;;;;;;;7.50;5.63;;;;;;;;;;5011395;28;20054;-82
2024/03/18 02:11:00;;;;;;;10.30;4.97;;;;;;;;;;5026305;28;20057;-82
2024/03/18 02:13:26;;;;;;;6.05;5.07;;;;;;;;;;5025790;28;20084;-82
2024/03/18 02:15:51;;;;;;;7.93;5.72;;;;;;;;;;5008793;28;20128;-84
2024/03/18 02:18:17;;;;;;;6.63;5.57;;;;;;;;;;5007745;28;20049;-83
2024/03/18 02:20:43;;;;;;;8.70;6.05;;;;;;;;;;5024463;28;20061;-83
2024/03/18 02:23:09;;;;;;;9.60;5.43;;;;;;;;;;5025308;28;20061;-87
2024/03/18 02:25:35;;;;;;;8.20;5.97;;;;;;;;;;4998391;28;20054;-88
2024/03/18 02:28:00;;;;;;;7.78;5.65;;;;;;;;;;4998276;28;20054;-87
2024/03/18 02:30:26;;;;;;;8.25;5.72;;;;;;;;;;5011332;28;20601;-88
2024/03/18 02:32:52;;;;;;;8.85;6.00;;;;;;;;;;5014221;28;20056;-88
2024/03/18 02:35:17;;;;;;;6.40;5.05;;;;;;;;;;5014873;28;20132;-88
2024/03/18 02:37:43;;;;;;;7.22;6.13;;;;;;;;;;5005041;28;20049;-88
2024/03/18 02:40:09;;;;;;;7.75;6.03;;;;;;;;;;4998187;28;20103;-88
2024/03/18 02:42:38;;;;;;;6.53;5.63;;;;;;;;;;5006468;28;20108;-85
2024/03/18 02:45:10;;;;;;;8.25;5.40;;;;;;;;;;5000799;28;20459;-86
2024/03/18 02:47:37;;;;;;;7.88;5.60;;;;;;;;;;5010555;28;20109;-84
2024/03/18 02:50:03;;;;;;;7.47;5.82;;;;;;;;;;5011181;28;20503;-85
2024/03/18 02:52:28;;;;;;;8.93;6.00;;;;;;;;;;5000816;28;20074;-84
2024/03/18 02:54:54;;;;;;;8.45;6.15;;;;;;;;;;4995718;28;20046;-84
2024/03/18 02:57:19;;;;;;;8.35;6.18;;;;;;;;;;4998580;28;20081;-84
2024/03/18 02:59:45;;;;;;;7.43;5.93;;;;;;;;;;5011610;28;20049;-85
2024/03/18 03:02:11;;;;;;;9.25;6.28;;;;;;;;;;4996581;28;20053;-84
2024/03/18 03:04:36;;;;;;;7.32;5.78;;;;;;;;;;4994620;28;20526;-85
2024/03/18 03:07:03;;;;;;;7.97;5.50;;;;;;;;;;4994493;28;20431;-85
2024/03/18 03:09:28;;;;;;;11.10;6.70;;;;;;;;;;5010450;28;20531;-85
2024/03/18 03:11:54;;;;;;;11.35;5.78;;;;;;;;;;4993398;28;20133;-85
2024/03/18 03:14:19;;;;;;;8.90;6.25;;;;;;;;;;4997499;28;20068;-85
2024/03/18 03:16:45;;;;;;;10.32;6.00;;;;;;;;;;4997630;28;20131;-86
2024/03/18 03:19:11;;;;;;;8.00;5.95;;;;;;;;;;4997550;28;20057;-85
2024/03/18 03:21:36;;;;;;;7.20;6.45;;;;;;;;;;5025247;28;20058;-87
2024/03/18 03:24:02;;;;;;;7.95;5.50;;;;;;;;;;5012614;28;20117;-87
2024/03/18 03:26:29;;;;;;;8.05;5.78;;;;;;;;;;4988232;28;20096;-87
2024/03/18 03:28:55;;;;;;;7.72;6.03;;;;;;;;;;5013449;28;20060;-87
2024/03/18 03:31:21;;;;;;;7.10;5.25;;;;;;;;;;5009285;28;20099;-87
2024/03/18 03:33:46;;;;;;;10.07;6.35;;;;;;;;;;5032389;28;20128;-87
2024/03/18 03:36:12;;;;;;;10.38;5.93;;;;;;;;;;5022461;28;20053;-87
2024/03/18 03:38:38;;;;;;;8.25;5.88;;;;;;;;;;5027922;28;20049;-87
2024/03/18 03:41:03;;;;;;;10.27;6.60;;;;;;;;;;5020837;28;20060;-87
2024/03/18 03:43:29;;;;;;;6.38;5.50;;;;;;;;;;5000537;28;20088;-88
2024/03/18 03:45:56;;;;;;;7.38;5.43;;;;;;;;;;5011148;28;20057;-86
2024/03/18 03:48:22;;;;;;;7.50;5.95;;;;;;;;;;5022061;28;20049;-86
2024/03/18 03:50:48;;;;;;;8.20;5.65;;;;;;;;;;5041744;28;20038;-83
2024/03/18 03:53:13;;;;;;;7.78;5.95;;;;;;;;;;5025997;28;20056;-83
2024/03/18 03:55:39;;;;;;;10.63;6.15;;;;;;;;;;5024244;28;20053;-83
2024/03/18 03:58:04;;;;;;;8.43;6.75;;;;;;;;;;5022021;28;20065;-83
2024/03/18 04:00:31;;;;;;;10.90;6.00;;;;;;;;;;5004225;28;20080;-83
2024/03/18 04:02:57;;;;;;;8.77;6.05;;;;;;;;;;5003635;28;20080;-83
2024/03/18 04:05:23;;;;;;;7.85;6.22;;;;;;;;;;5030663;28;20053;-83
2024/03/18 04:07:49;;;;;;;9.35;6.35;;;;;;;;;;5021893;28;20045;-83
2024/03/18 04:10:15;;;;;;;9.10;7.50;;;;;;;;;;5021624;28;20618;-83
2024/03/18 04:12:40;;;;;;;12.27;6.43;;;;;;;;;;5018162;28;20057;-84
2024/03/18 04:15:07;;;;;;;8.75;5.65;;;;;;;;;;5015676;28;20058;-86
2024/03/18 04:17:33;;;;;;;8.23;5.68;;;;;;;;;;5002381;28;20057;-86
2024/03/18 04:19:59;;;;;;;7.18;5.85;;;;;;;;;;5038956;28;20045;-82
2024/03/18 04:22:24;;;;;;;13.13;6.88;;;;;;;;;;5024688;28;20054;-87
2024/03/18 04:24:50;;;;;;;6.75;5.97;;;;;;;;;;5032724;28;20435;-85
2024/03/18 04:27:17;;;;;;;9.43;7.07;;;;;;;;;;5021919;28;20105;-86
2024/03/18 04:29:43;;;;;;;9.43;6.65;;;;;;;;;;5014206;28;20046;-87
2024/03/18 04:32:10;;;;;;;8.48;5.78;;;;;;;;;;5016239;28;20128;-87
2024/03/18 04:34:35;;;;;;;11.90;6.97;;;;;;;;;;4993757;28;20077;-87
2024/03/18 04:37:02;;;;;;;8.00;5.97;;;;;;;;;;5018932;28;20388;-86
2024/03/18 04:39:28;;;;;;;8.43;6.10;;;;;;;;;;5022514;28;20060;-86
2024/03/18 04:41:54;;;;;;;11.70;6.47;;;;;;;;;;4989543;28;20133;-84
2024/03/18 04:44:19;;;;;;;7.43;6.10;;;;;;;;;;5023500;28;20080;-84
2024/03/18 04:46:45;;;;;;;9.85;5.97;;;;;;;;;;5023981;28;20123;-84
2024/03/18 04:49:10;;;;;;;7.60;6.80;;;;;;;;;;5017742;28;20060;-84
2024/03/18 04:51:36;;;;;;;11.27;6.32;;;;;;;;;;5012337;28;20127;-84
2024/03/18 04:54:01;;;;;;;6.68;5.57;;;;;;;;;;5028479;28;20478;-84
2024/03/18 04:56:29;;;;;;;10.40;6.20;;;;;;;;;;5024253;28;20084;-84
2024/03/18 04:58:54;;;;;;;9.48;6.43;;;;;;;;;;5018322;28;20530;-84
2024/03/18 05:01:20;;;;;;;9.23;5.75;;;;;;;;;;5001877;28;20053;-85
2024/03/18 05:03:45;;;;;;;7.22;5.60;;;;;;;;;;5034386;28;20061;-84
2024/03/18 05:06:11;;;;;;;8.85;6.25;;;;;;;;;;5018323;28;20049;-84
2024/03/18 05:08:36;;;;;;;9.27;6.38;;;;;;;;;;5018231;28;20053;-84
2024/03/18 05:11:03;;;;;;;7.47;5.72;;;;;;;;;;5016370;28;20068;-88
2024/03/18 05:13:28;;;;;;;6.95;5.22;;;;;;;;;;5016300;28;20495;-85
2024/03/18 05:15:54;;;;;;;7.78;5.35;;;;;;;;;;5021148;28;20045;-85
2024/03/18 05:18:19;;;;;;;9.35;5.65;;;;;;;;;;5000761;28;20072;-85
2024/03/18 05:20:45;;;;;;;11.90;6.47;;;;;;;;;;5017270;28;20438;-85
2024/03/18 05:23:11;;;;;;;9.23;5.55;;;;;;;;;;5020321;28;20080;-84
2024/03/18 05:25:37;;;;;;;8.65;5.88;;;;;;;;;;5019661;28;20058;-84
2024/03/18 05:28:02;;;;;;;7.18;5.60;;;;;;;;;;5017767;28;20049;-84
2024/03/18 05:30:28;;;;;;;9.15;5.95;;;;;;;;;;5018998;28;20046;-83
2024/03/18 05:32:53;;;;;;;8.60;5.63;;;;;;;;;;5023213;28;20054;-83
2024/03/18 05:35:22;;;;;;;7.90;5.75;;;;;;;;;;5016760;28;20515;-82
2024/03/18 05:37:48;;;;;;;8.20;5.93;;;;;;;;;;5034369;28;20046;-82
2024/03/18 05:40:14;;;;;;;5.95;5.18;;;;;;;;;;5016058;28;20053;-82
2024/03/18 05:42:39;;;;;;;8.00;5.03;;;;;;;;;;5017055;28;20049;-82
2024/03/18 05:45:05;;;;;;;8.15;5.78;;;;;;;;;;5033492;28;20053;-82
2024/03/18 05:47:31;;;;;;;10.85;6.85;;;;;;;;;;4997879;28;20045;-83
2024/03/18 05:49:56;;;;;;;8.60;6.45;;;;;;;;;;5000659;28;20061;-86
2024/03/18 05:52:26;;;;;;;10.02;6.25;;;;;;;;;;5009528;28;20041;-86
2024/03/18 05:54:52;;;;;;;8.70;6.05;;;;;;;;;;5014809;28;20046;-86
2024/03/18 05:57:18;;;;;;;8.00;5.60;;;;;;;;;;5016016;28;20048;-86
2024/03/18 05:59:43;;;;;;;9.27;5.90;;;;;;;;;;5015279;28;20108;-86
2024/03/18 06:02:09;;;;;;;11.20;5.53;;;;;;;;;;5014994;28;20049;-87
2024/03/18 06:04:36;;;;;;;7.05;5.18;;;;;;;;;;5020674;28;20056;-86
2024/03/18 06:07:03;;;;;;;9.63;5.85;;;;;;;;;;5016380;28;20060;-86
2024/03/18 06:09:28;;;;;;;10.88;5.82;;;;;;;;;;4999088;28;20061;-86
2024/03/18 06:11:54;;;;;;;8.32;6.00;;;;;;;;;;5015738;28;20052;-86
2024/03/18 06:14:19;;;;;;;7.80;5.10;;;;;;;;;;4999938;28;20061;-87
2024/03/18 06:16:45;;;;;;;5.97;4.95;;;;;;;;;;4998354;28;20049;-87
2024/03/18 06:19:14;;;;;;;4.70;4.28;;;;;;;;;;4997061;28;20064;-86
2024/03/18 06:21:42;;;;;;;7.00;5.22;;;;;;;;;;5015627;28;20080;-87
2024/03/18 06:24:09;;;;;;;8.10;4.90;;;;;;;;;;5018850;28;20057;-87
2024/03/18 06:26:35;;;;;;;7.20;5.00;;;;;;;;;;5015138;28;20053;-87
2024/03/18 06:29:01;;;;;;;6.45;5.32;;;;;;;;;;4995433;28;20112;-87
2024/03/18 06:31:27;;;;;;;6.65;4.50;;;;;;;;;;5014826;28;20053;-86
2024/03/18 06:33:53;;;;;;;7.72;4.90;;;;;;;;;;5017270;28;20063;-86
2024/03/18 06:36:18;;;;;;;4.60;4.20;;;;;;;;;;5001837;28;20053;-85
2024/03/18 06:38:44;;;;;;;9.27;4.93;;;;;;;;;;5014249;28;20060;-86
2024/03/18 06:41:09;;;;;;;8.77;5.25;;;;;;;;;;4997946;28;20079;-85
2024/03/18 06:43:35;;;;;;;7.93;4.75;;;;;;;;;;4998027;28;20439;-88
2024/03/18 06:46:01;;;;;;;5.90;4.82;;;;;;;;;;5016728;28;20435;-87
2024/03/18 06:48:27;;;;;;;7.38;5.03;;;;;;;;;;5014283;28;20052;-86
2024/03/18 06:50:52;;;;;;;6.15;5.05;;;;;;;;;;4995290;28;20132;-86
2024/03/18 06:53:18;;;;;;;7.57;5.30;;;;;;;;;;5013307;28;20427;-85
2024/03/18 06:55:44;;;;;;;6.40;5.55;;;;;;;;;;5021788;28;20046;-85
2024/03/18 06:58:10;;;;;;;6.18;5.28;;;;;;;;;;5003116;28;20586;-87
2024/03/18 07:00:36;;;;;;;9.70;4.85;;;;;;;;;;4998938;28;20069;-84
2024/03/18 07:03:02;;;;;;;7.60;5.47;;;;;;;;;;5018556;28;20470;-83
2024/03/18 07:05:28;;;;;;;7.78;5.30;;;;;;;;;;5003986;28;20057;-83
2024/03/18 07:07:53;;;;;;;9.48;5.30;;;;;;;;;;4999543;28;20539;-82
2024/03/18 07:10:19;;;;;;;10.00;5.57;;;;;;;;;;5019249;28;20491;-79
2024/03/18 07:12:45;;;;;;;10.60;5.75;;;;;;;;;;5025437;28;20097;-83
2024/03/18 07:15:11;;;;;;;7.32;6.55;;;;;;;;;;4996483;28;20115;-77
2024/03/18 07:17:37;;;;;;;7.97;5.45;;;;;;;;;;5017941;28;20049;-79
2024/03/18 07:20:06;;;;;;;9.38;5.82;;;;;;;;;;5018490;28;20597;-82
2024/03/18 07:22:35;;;;;;;8.43;5.63;;;;;;;;;;5012389;28;20050;-82
2024/03/18 07:25:00;;;;;;;7.90;5.68;;;;;;;;;;5025912;28;20292;-80
2024/03/18 07:27:27;;;;;;;6.88;5.32;;;;;;;;;;5021547;28;20095;-80
2024/03/18 07:29:58;;;;;;;7.82;4.95;;;;;;;;;;5022781;28;20049;-82
2024/03/18 07:32:24;;;;;;;8.50;5.50;;;;;;;;;;5007392;28;20045;-82
2024/03/18 07:34:50;;;;;;;8.25;5.35;;;;;;;;;;5007217;28;20054;-81
2024/03/18 07:37:16;;;;;;;9.20;5.57;;;;;;;;;;5004273;28;20064;-81
2024/03/18 07:39:42;;;;;;;9.18;5.75;;;;;;;;;;5005564;28;20084;-82
2024/03/18 07:42:07;;;;;;;7.32;5.60;;;;;;;;;;5023920;28;20081;-82
2024/03/18 07:44:33;;;;;;;8.35;5.47;;;;;;;;;;5023703;28;20092;-81
2024/03/18 07:46:58;;;;;;;9.02;5.97;;;;;;;;;;5004763;28;20077;-82
2024/03/18 07:49:24;;;;;;;7.53;5.85;;;;;;;;;;5000743;28;20042;-83
2024/03/18 07:51:49;;;;;;;8.35;5.68;;;;;;;;;;5023725;28;20060;-83
2024/03/18 07:54:15;;;;;;;10.27;6.82;;;;;;;;;;5007381;28;20076;-81
2024/03/18 07:56:41;;;;;;;8.63;7.03;;;;;;;;;;5005857;28;20054;-83
2024/03/18 07:59:07;;;;;;;8.30;7.32;;;;;;;;;;5030501;28;20053;-81
2024/03/18 08:01:34;;;;;;;9.85;6.70;;;;;;;;;;5023903;28;20071;-79
2024/03/18 08:04:00;;;;;;;8.25;6.10;;;;;;;;;;5021542;28;20049;-80
2024/03/18 08:06:26;;;;;;;10.07;6.30;;;;;;;;;;5003909;28;20076;-80
2024/03/18 08:08:51;;;;;;;9.40;7.28;;;;;;;;;;5003067;28;20149;-79
2024/03/18 08:11:17;;;;;;;8.13;6.07;;;;;;;;;;5022914;28;20049;-78
2024/03/18 08:13:42;;;;;;;9.07;5.97;;;;;;;;;;5022366;28;20061;-81
2024/03/18 08:16:08;;;;;;;8.57;5.53;;;;;;;;;;5007073;28;20045;-82
2024/03/18 08:18:33;;;;;;;8.32;6.70;;;;;;;;;;5038240;28;20053;-83
2024/03/18 08:20:59;;;;;;;8.82;6.60;;;;;;;;;;5023841;28;20053;-85
2024/03/18 08:23:24;;;;;;;7.88;6.40;;;;;;;;;;4990520;28;20089;-79
2024/03/18 08:25:50;;;;;;;8.32;6.88;;;;;;;;;;5025887;28;20060;-79
2024/03/18 08:28:15;;;;;;;9.77;6.72;;;;;;;;;;5017387;28;20050;-79
2024/03/18 08:30:41;;;;;;;10.90;7.38;;;;;;;;;;5031661;28;20049;-80
2024/03/18 08:33:08;;;;;;;10.60;6.97;;;;;;;;;;5004509;28;20053;-80
2024/03/18 08:35:34;;;;;;;9.30;6.47;;;;;;;;;;5022889;28;20049;-81
2024/03/18 08:38:00;;;;;;;11.50;7.38;;;;;;;;;;5023541;28;20084;-81
2024/03/18 08:40:25;;;;;;;10.15;7.00;;;;;;;;;;5028482;28;20088;-83
2024/03/18 08:42:51;;;;;;;8.13;6.85;;;;;;;;;;5026589;28;20088;-82
2024/03/18 08:45:17;;;;;;;8.90;6.47;;;;;;;;;;5036685;28;20053;-81
2024/03/18 08:47:43;;;;;;;9.32;6.97;;;;;;;;;;5012653;28;20056;-82
2024/03/18 08:50:09;;;;;;;11.80;7.07;;;;;;;;;;5035194;28;20060;-82
2024/03/18 08:52:37;;;;;;;7.93;6.13;;;;;;;;;;5027606;28;20049;-82
2024/03/18 08:55:04;;;;;;;8.02;5.85;;;;;;;;;;5010948;28;20042;-81
2024/03/18 08:57:29;;;;;;;8.85;5.82;;;;;;;;;;5011139;28;20042;-83
2024/03/18 08:59:55;;;;;;;7.93;5.93;;;;;;;;;;5019412;28;20084;-84
2024/03/18 09:02:20;;;;;;;6.70;5.88;;;;;;;;;;5037224;28;20084;-83
2024/03/18 09:04:46;;;;;;;11.70;6.70;;;;;;;;;;5001888;28;20053;-82
2024/03/18 09:07:11;;;;;;;11.55;6.88;;;;;;;;;;5014576;28;20064;-84
2024/03/18 09:09:37;;;;;;;8.80;6.57;;;;;;;;;;5006086;28;20579;-85
2024/03/18 09:12:03;;;;;;;6.60;5.75;;;;;;;;;;5029230;28;20057;-84
2024/03/18 09:14:29;;;;;;;8.95;5.88;;;;;;;;;;5005343;28;20083;-83
2024/03/18 09:16:54;;;;;;;8.38;6.53;;;;;;;;;;5009900;28;20092;-84
2024/03/18 09:19:20;;;;;;;8.50;6.47;;;;;;;;;;5021101;28;20160;-84
2024/03/18 09:21:47;;;;;;;8.15;7.18;;;;;;;;;;5013125;28;20054;-83
2024/03/18 09:24:13;;;;;;;13.38;7.05;;;;;;;;;;5016536;28;20049;-82
2024/03/18 09:26:39;;;;;;;10.60;8.20;;;;;;;;;;5018496;28;20054;-82
2024/03/18 09:29:04;;;;;;;10.63;7.20;;;;;;;;;;5016735;28;20251;-84
2024/03/18 09:31:30;;;;;;;15.75;8.88;;;;;;;;;;5012889;28;20056;-85
2024/03/18 09:33:56;;;;;;;10.57;7.85;;;;;;;;;;4991825;28;20115;-84
2024/03/18 09:36:21;;;;;;;9.75;8.38;;;;;;;;;;5009895;28;20077;-84
2024/03/18 09:38:47;;;;;;;12.57;8.90;;;;;;;;;;5007452;28;20084;-84
2024/03/18 09:41:13;;;;;;;9.75;8.57;;;;;;;;;;5027304;28;20049;-85
2024/03/18 09:43:39;;;;;;;10.30;7.75;;;;;;;;;;5013028;28;20050;-85
2024/03/18 09:46:04;;;;;;;7.93;7.00;;;;;;;;;;5015820;28;20053;-85
2024/03/18 09:48:33;;;;;;;10.85;7.35;;;;;;;;;;5023364;28;20486;-85
2024/03/18 09:50:59;;;;;;;9.10;7.50;;;;;;;;;;5008851;28;20324;-85
2024/03/18 09:53:25;;;;;;;7.70;6.90;;;;;;;;;;4988923;28;20041;-86
2024/03/18 09:55:51;;;;;;;9.27;7.03;;;;;;;;;;5007589;28;20111;-85
2024/03/18 09:58:17;;;;;;;9.73;6.43;;;;;;;;;;4997792;28;20050;-85
2024/03/18 10:00:45;;;;;;;8.32;7.30;;;;;;;;;;5006978;28;20115;-85
2024/03/18 10:03:17;;;;;;;9.52;6.78;;;;;;;;;;4993948;28;21036;-85
2024/03/18 10:05:43;;;;;;;8.47;7.53;;;;;;;;;;4992822;28;20049;-85
2024/03/18 10:08:12;;;;;;;9.95;7.18;;;;;;;;;;4996500;28;20315;-85
2024/03/18 10:10:37;;;;;;;10.00;7.93;;;;;;;;;;4997444;28;20049;-83
2024/03/18 10:13:03;;;;;;;9.70;7.68;;;;;;;;;;5006337;28;20064;-85
2024/03/18 10:15:28;;;;;;;10.40;6.30;;;;;;;;;;5012408;28;20075;-85
2024/03/18 10:17:57;;;;;;;11.23;6.97;;;;;;;;;;5003093;28;20368;-85
2024/03/18 10:20:23;;;;;;;8.52;5.13;;;;;;;;;;5013429;28;20049;-85
2024/03/18 10:22:49;;;;;;;7.85;6.13;;;;;;;;;;5003200;28;20054;-85
2024/03/18 10:25:16;;;;;;;9.20;4.90;;;;;;;;;;5004632;28;20050;-85
2024/03/18 10:27:43;;;;;;;8.48;5.47;;;;;;;;;;5016051;28;20499;-84
2024/03/18 10:30:12;;;;;;;8.27;5.50;;;;;;;;;;5012808;28;20419;-85
2024/03/18 10:32:39;;;;;;;6.10;5.30;;;;;;;;;;4999700;28;20056;-85
2024/03/18 10:35:04;;;;;;;10.85;7.43;;;;;;;;;;5020947;28;20026;-85
2024/03/18 10:37:30;;;;;;;10.70;6.30;;;;;;;;;;5017592;28;20093;-85
2024/03/18 10:40:05;;;;;;;9.18;5.68;;;;;;;;;;5031516;28;20058;-79
2024/03/18 10:42:34;;;;;;;8.57;6.78;;;;;;;;;;5017626;28;20080;-80
2024/03/18 10:45:10;;;;;;;7.43;6.38;;;;;;;;;;5011807;28;20104;-75
2024/03/18 10:47:36;;;;;;;10.55;6.63;;;;;;;;;;5001469;28;20054;-77
2024/03/18 10:50:02;;;;;;;9.98;5.63;;;;;;;;;;5001477;28;20057;-76
2024/03/18 10:52:29;;;;;;;7.63;6.07;;;;;;;;;;5012008;28;20045;-78
2024/03/18 10:54:55;;;;;;;9.88;6.28;;;;;;;;;;4988648;28;20411;-84
2024/03/18 10:57:21;;;;;;;7.53;5.97;;;;;;;;;;4997450;28;20049;-86
2024/03/18 10:59:46;;;;;;;11.32;7.55;;;;;;;;;;4991078;28;20053;-86
2024/03/18 11:02:12;;;;;;;8.02;6.90;;;;;;;;;;4989685;28;20523;-88
2024/03/18 11:04:39;;;;;;;10.10;6.38;;;;;;;;;;5005295;28;20080;-86
2024/03/18 11:07:04;;;;;;;8.65;6.15;;;;;;;;;;5013640;28;20099;-88
2024/03/18 11:09:30;;;;;;;8.02;6.20;;;;;;;;;;4997308;28;20057;-85
2024/03/18 11:11:56;;;;;;;8.57;6.18;;;;;;;;;;5019989;28;20048;-87
2024/03/18 11:14:24;;;;;;;10.05;6.50;;;;;;;;;;5006789;28;20155;-87
2024/03/18 11:16:50;;;;;;;7.47;6.47;;;;;;;;;;5002813;28;20046;-84
2024/03/18 11:19:22;;;;;;;6.93;6.00;;;;;;;;;;5004882;28;20053;-84
2024/03/18 11:21:58;;;;;;;8.70;7.03;;;;;;;;;;5009350;28;20499;-85
2024/03/18 11:24:24;;;;;;;11.10;6.60;;;;;;;;;;5011532;28;20045;-86
2024/03/18 11:26:56;;;;;;;12.45;7.13;;;;;;;;;;5006440;28;20060;-83
2024/03/18 11:29:21;;;;;;;8.52;5.88;;;;;;;;;;5008832;28;20423;-85
2024/03/18 11:31:52;;;;;;;8.70;5.45;;;;;;;;;;5003311;28;20042;-82
2024/03/18 11:34:21;;;;;;;11.60;5.90;;;;;;;;;;4993634;28;20042;-83
2024/03/18 11:36:46;;;;;;;10.05;5.72;;;;;;;;;;5010185;28;20049;-83
2024/03/18 11:39:17;;;;;;;9.20;6.40;;;;;;;;;;4999987;28;20115;-82
2024/03/18 11:41:42;;;;;;;11.90;6.22;;;;;;;;;;4992748;28;20053;-82
2024/03/18 11:44:14;;;;;;;9.95;6.03;;;;;;;;;;5000096;28;20137;-87
2024/03/18 11:46:40;;;;;;;9.18;6.05;;;;;;;;;;4989373;28;20062;-88
2024/03/18 11:49:06;;;;;;;10.00;6.03;;;;;;;;;;5001463;28;20050;-86
2024/03/18 11:51:34;;;;;;;7.60;6.35;;;;;;;;;;5030907;28;20063;-90
2024/03/18 11:54:08;;;;;;;9.30;7.68;;;;;;;;;;5013121;28;20056;-85
2024/03/18 11:56:35;;;;;;;9.30;7.05;;;;;;;;;;5001383;28;20057;-86
2024/03/18 11:59:02;;;;;;;12.25;6.95;;;;;;;;;;5011088;28;20507;-86
2024/03/18 12:01:28;;;;;;;13.07;6.88;;;;;;;;;;5007543;28;20049;-86
2024/03/18 12:03:54;;;;;;;8.02;7.10;;;;;;;;;;4986033;28;20109;-87
2024/03/18 12:06:19;;;;;;;10.18;7.30;;;;;;;;;;4990439;28;20140;-85
2024/03/18 12:08:45;;;;;;;11.57;7.30;;;;;;;;;;5002440;28;20108;-86
2024/03/18 12:11:10;;;;;;;12.35;6.90;;;;;;;;;;5000680;28;20057;-86
2024/03/18 12:13:36;;;;;;;7.18;6.13;;;;;;;;;;5003632;28;20086;-84
2024/03/18 12:16:02;;;;;;;7.68;5.38;;;;;;;;;;5003423;28;20054;-85
2024/03/18 12:18:30;;;;;;;9.27;6.18;;;;;;;;;;5003704;28;20088;-87
2024/03/18 12:20:56;;;;;;;10.77;7.05;;;;;;;;;;5009819;28;20063;-84
2024/03/18 12:28:51;;;;;;;10.45;6.53;;;;;;;;;;5027102;28;20061;-86
2024/03/18 12:31:21;;;;;;;11.15;7.38;;;;;;;;;;4993024;28;20522;-86
2024/03/18 12:33:47;;;;;;;9.15;6.38;;;;;;;;;;4989144;28;20042;-85
2024/03/18 12:36:13;;;;;;;13.77;7.55;;;;;;;;;;5005138;28;20052;-85
2024/03/18 12:38:40;;;;;;;10.32;7.20;;;;;;;;;;5008708;28;20053;-86
2024/03/18 12:41:06;;;;;;;9.48;7.25;;;;;;;;;;4992850;28;20053;-87
2024/03/18 12:43:31;;;;;;;8.82;7.50;;;;;;;;;;5000533;28;20052;-87
2024/03/18 12:45:58;;;;;;;8.07;7.22;;;;;;;;;;4990574;28;20057;-89
2024/03/18 12:48:26;;;;;;;9.52;6.72;;;;;;;;;;5000560;28;20053;-88
2024/03/18 12:50:52;;;;;;;12.38;8.77;;;;;;;;;;5012243;28;20049;-87
2024/03/18 12:53:19;;;;;;;8.70;7.78;;;;;;;;;;5028417;28;20081;-86
2024/03/18 12:55:45;;;;;;;9.23;6.50;;;;;;;;;;5002326;28;20049;-82
2024/03/18 12:58:11;;;;;;;7.93;7.13;;;;;;;;;;5011561;28;20057;-87
2024/03/18 13:00:36;;;;;;;11.10;6.35;;;;;;;;;;4994965;28;20104;-86
2024/03/18 13:03:02;;;;;;;10.70;6.78;;;;;;;;;;4999991;28;20060;-88
2024/03/18 13:05:28;;;;;;;11.73;6.43;;;;;;;;;;5007434;28;20420;-85
2024/03/18 13:07:54;;;;;;;10.82;7.30;;;;;;;;;;5017729;28;20413;-85
2024/03/18 13:10:19;;;;;;;9.63;6.80;;;;;;;;;;5016134;28;20088;-85
2024/03/18 13:12:45;;;;;;;10.25;6.43;;;;;;;;;;5008891;28;20050;-86
2024/03/18 13:15:13;;;;;;;9.77;6.47;;;;;;;;;;5025482;28;20053;-86
2024/03/18 13:17:38;;;;;;;8.80;6.28;;;;;;;;;;5011828;28;20057;-84
2024/03/18 13:20:08;;;;;;;9.13;6.60;;;;;;;;;;4999659;28;20045;-84
2024/03/18 13:22:35;;;;;;;10.85;7.07;;;;;;;;;;5015738;28;20057;-85
2024/03/18 13:25:01;;;;;;;10.45;8.00;;;;;;;;;;5018698;28;20044;-85
2024/03/18 13:27:26;;;;;;;9.45;6.93;;;;;;;;;;5023131;28;20049;-86
2024/03/18 13:29:52;;;;;;;8.05;6.30;;;;;;;;;;5024433;28;20046;-86
2024/03/18 13:32:21;;;;;;;7.07;5.78;;;;;;;;;;4998821;28;20491;-86
2024/03/18 13:34:50;;;;;;;9.60;5.78;;;;;;;;;;5011250;28;20549;-87
2024/03/18 13:37:16;;;;;;;11.70;6.35;;;;;;;;;;5004408;28;20060;-86
2024/03/18 13:39:44;;;;;;;9.93;5.30;;;;;;;;;;5007991;28;20060;-87
2024/03/18 13:42:16;;;;;;;6.03;4.28;;;;;;;;;;4990957;28;20065;-86
2024/03/18 13:44:45;;;;;;;4.90;3.60;;;;;;;;;;4999850;28;20064;-86
2024/03/18 13:47:11;;;;;;;4.95;3.33;;;;;;;;;;4997609;28;20460;-86
2024/03/18 13:49:37;;;;;;;6.10;3.05;;;;;;;;;;4995432;28;20053;-87
2024/03/18 13:52:03;;;;;;;3.28;2.28;;;;;;;;;;5011543;28;20057;-87
2024/03/18 13:54:29;;;;;;;4.00;2.90;;;;;;;;;;4994902;28;20116;-86
2024/03/18 13:56:58;;;;;;;6.20;2.78;;;;;;;;;;4992663;28;20049;-86
2024/03/18 13:59:24;;;;;;;5.18;3.50;;;;;;;;;;5009357;28;20053;-86
2024/03/18 14:01:49;;;;;;;4.40;2.60;;;;;;;;;;4992215;28;20550;-86
2024/03/18 14:04:16;;;;;;;3.47;2.50;;;;;;;;;;4991418;28;20136;-85
2024/03/18 14:06:42;;;;;;;3.60;2.67;;;;;;;;;;5003325;28;20061;-84
2024/03/18 14:09:09;;;;;;;6.05;3.15;;;;;;;;;;5028250;28;20045;-86
2024/03/18 14:11:35;;;;;;;2.85;2.45;;;;;;;;;;5013922;28;20045;-85
2024/03/18 14:14:00;;;;;;;8.20;3.00;;;;;;;;;;4986530;28;20077;-86
2024/03/18 14:16:26;;;;;;;5.28;2.30;;;;;;;;;;5003441;28;20085;-84
2024/03/18 14:18:51;;;;;;;4.63;2.55;;;;;;;;;;4995480;28;20183;-86
2024/03/18 14:21:19;;;;;;;2.88;2.17;;;;;;;;;;5028183;28;20053;-85
2024/03/18 14:23:45;;;;;;;3.97;2.70;;;;;;;;;;5009557;28;20617;-85
2024/03/18 14:26:12;;;;;;;3.47;2.90;;;;;;;;;;4991402;28;20080;-85
2024/03/18 14:28:38;;;;;;;6.75;3.20;;;;;;;;;;5007564;28;20528;-86
2024/03/18 14:31:03;;;;;;;7.60;3.10;;;;;;;;;;4987668;28;20053;-80
2024/03/18 14:33:30;;;;;;;4.68;3.10;;;;;;;;;;4993353;28;20053;-85
2024/03/18 14:35:57;;;;;;;6.68;3.47;;;;;;;;;;4997365;28;20050;-83
2024/03/18 14:38:23;;;;;;;6.68;3.13;;;;;;;;;;5000137;28;20050;-84
2024/03/18 14:40:49;;;;;;;6.97;3.38;;;;;;;;;;5023923;28;20470;-84